No particular awareness of the weather is required.    There are no Weather-warnings

Karlovy Vary SW more information Karlovy Vary SW


Karlovy Vary ESE more information Karlovy Vary ESE


Thunder radar more information blitzortung!


Rain radar more information rain snow radar


Visit our other weather sites:

Template documentation
and downloads

My WDL Site

WX

iWDL

MeteoWare Live



Nearby METAR Reports

  
LKKV - Karlovy Vary, Czech Republic
Distance from station: ESE 6km
Updated: 16.12.2018 11:30
Mostly Cloudy
Mostly Cloudy  
 Wind from SSE
Wind: SSE 7 km/h
Temperature:  -5°C
Wind Chill:  -8°C
Dew Point:  -7°C
Humidity:  86%
Barometer:  1013 hPa
Clouds:  Mostly Cloudy
Visibility:  10 km
Cloud details:  Mostly Cloudy 366 m
2018/12/16 10:30 LKKV 161030Z 16004KT 130V190 9999 BKN012 M05/M07 Q1013 R29/09//95
LKLN - Plzeň, Czech Republic
Distance from station: SSE 68km
Updated: 16.12.2018 11:00
Overcast
Overcast  
 Wind from ESE
Wind: ESE 11 km/h
Temperature:  -2°C
Wind Chill:  -6°C
Dew Point:  -6°C
Humidity:  74%
Barometer:  1015 hPa
Clouds:  Overcast
Visibility:  10 km
Cloud details:  Overcast 549 m
2018/12/16 10:00 LKLN 161000Z AUTO 11006KT 9999 OVC018 M02/M06 Q1015
EDAC - Altenburg-Nobitz, Germany
Distance from station: NNW 87km
Updated: 16.12.2018 11:50
Clear
Clear  
 Wind from SE
Wind: SE 11 km/h
Temperature:  0°C
Wind Chill:  -4°C
Dew Point:  -6°C
Humidity:  64%
Barometer:  1014 hPa
Summary:  Clear
Visibility:  greater than 10 km
2018/12/16 10:50 EDAC 161050Z 14006KT 110V180 CAVOK M00/M06 Q1014
ETIC - Grafenwöhr, Germany
Distance from station: SW 88km
Updated: 16.12.2018 10:56
Overcast
Overcast  
 Wind from ESE
Wind: ESE 7 km/h
Temperature:  -3°C
Wind Chill:  -6°C
Dew Point:  -5°C
Humidity:  86%
Barometer:  1013.5 hPa
Clouds:  Overcast
Visibility:  10 km
Cloud details:  Overcast 2743 m
2018/12/16 09:56 ETIC 160956Z AUTO 12004KT 9999 OVC090 M03/M05 A2993 RMK AO2 SLPNO T10331046 $
LKPR - Prague/Ruzyne, Czech Republic
Distance from station: E 103km
Updated: 16.12.2018 11:30
Overcast
Overcast  
 Wind from S
Wind: S 13 km/h
Temperature:  -3°C
Wind Chill:  -7°C
Dew Point:  -7°C
Humidity:  74%
Barometer:  1015 hPa
Clouds:  Overcast
Visibility:  10 km
Cloud details:  Overcast 610 m
2018/12/16 10:30 LKPR 161030Z 17007KT 9999 OVC020 M03/M07 Q1015 NOSIG
EDQM - Hof, Germany
Distance from station: W 71km
Updated: 16.12.2018 11:50
Mostly Cloudy
Mostly Cloudy  
 Wind from SSE
Wind: SSE 15 km/h
Temperature:  -3°C
Wind Chill:  -8°C
Dew Point:  -6°C
Humidity:  80%
Barometer:  1011 hPa
Clouds:  Mostly Cloudy
Visibility:  10 km
Cloud details:  Mostly Cloudy 732 m
2018/12/16 10:50 EDQM 161050Z 16008KT 130V200 9999 BKN024 M03/M06 Q1011

Script developed by  Saratoga-weather.org Adapted for the template by  Weerstation Leuven

Equipment we use:


Weather-station
TFA Nexus

Weather-program
Meteohub

Weather-server
SilverStone DC01

Provider
WIA

TFA Nexus

Meteohub

SilverStone DC01

WIA